sensor_id;sensor_type;location;lat;lon;timestamp;P1;durP1;ratioP1;P2;durP2;ratioP2
53287;SDS011;39172;45.550;12.072;2023-11-18T00:01:51;16.35;;;13.38;;
53287;SDS011;39172;45.550;12.072;2023-11-18T00:07:55;15.25;;;12.85;;
53287;SDS011;39172;45.550;12.072;2023-11-18T00:13:56;14.70;;;11.75;;
53287;SDS011;39172;45.550;12.072;2023-11-18T00:19:58;13.48;;;11.90;;
53287;SDS011;39172;45.550;12.072;2023-11-18T00:26:01;12.70;;;10.95;;
53287;SDS011;39172;45.550;12.072;2023-11-18T00:32:03;12.82;;;10.73;;
53287;SDS011;39172;45.550;12.072;2023-11-18T00:38:05;14.70;;;12.57;;
53287;SDS011;39172;45.550;12.072;2023-11-18T00:44:06;14.48;;;11.48;;
53287;SDS011;39172;45.550;12.072;2023-11-18T00:50:09;13.90;;;12.18;;
53287;SDS011;39172;45.550;12.072;2023-11-18T00:56:12;13.00;;;11.20;;
53287;SDS011;39172;45.550;12.072;2023-11-18T01:02:15;11.68;;;10.07;;
53287;SDS011;39172;45.550;12.072;2023-11-18T01:08:18;12.45;;;10.90;;
53287;SDS011;39172;45.550;12.072;2023-11-18T01:14:19;12.80;;;10.65;;
53287;SDS011;39172;45.550;12.072;2023-11-18T01:20:23;11.32;;;10.07;;
53287;SDS011;39172;45.550;12.072;2023-11-18T01:26:24;11.35;;;9.73;;
53287;SDS011;39172;45.550;12.072;2023-11-18T01:32:25;12.38;;;9.75;;
53287;SDS011;39172;45.550;12.072;2023-11-18T01:38:27;10.25;;;9.13;;
53287;SDS011;39172;45.550;12.072;2023-11-18T01:44:28;11.70;;;9.80;;
53287;SDS011;39172;45.550;12.072;2023-11-18T01:50:29;13.23;;;10.63;;
53287;SDS011;39172;45.550;12.072;2023-11-18T01:56:32;13.18;;;11.35;;
53287;SDS011;39172;45.550;12.072;2023-11-18T02:02:33;10.85;;;9.38;;
53287;SDS011;39172;45.550;12.072;2023-11-18T02:08:37;10.55;;;9.23;;
53287;SDS011;39172;45.550;12.072;2023-11-18T02:14:40;11.98;;;10.35;;
53287;SDS011;39172;45.550;12.072;2023-11-18T02:20:41;11.05;;;9.65;;
53287;SDS011;39172;45.550;12.072;2023-11-18T02:26:42;12.98;;;10.68;;
53287;SDS011;39172;45.550;12.072;2023-11-18T02:38:47;12.07;;;10.65;;
53287;SDS011;39172;45.550;12.072;2023-11-18T02:44:50;11.80;;;9.93;;
53287;SDS011;39172;45.550;12.072;2023-11-18T02:51:00;11.88;;;10.20;;
53287;SDS011;39172;45.550;12.072;2023-11-18T02:57:02;13.70;;;11.40;;
53287;SDS011;39172;45.550;12.072;2023-11-18T03:03:04;11.68;;;10.38;;
53287;SDS011;39172;45.550;12.072;2023-11-18T03:09:06;13.25;;;11.35;;
53287;SDS011;39172;45.550;12.072;2023-11-18T03:15:08;10.48;;;9.38;;
53287;SDS011;39172;45.550;12.072;2023-11-18T03:21:14;10.02;;;8.90;;
53287;SDS011;39172;45.550;12.072;2023-11-18T03:27:15;10.30;;;9.20;;
53287;SDS011;39172;45.550;12.072;2023-11-18T03:33:17;10.85;;;9.68;;
53287;SDS011;39172;45.550;12.072;2023-11-18T03:39:19;11.45;;;9.70;;
53287;SDS011;39172;45.550;12.072;2023-11-18T03:45:21;12.50;;;11.20;;
53287;SDS011;39172;45.550;12.072;2023-11-18T03:51:22;11.98;;;9.82;;
53287;SDS011;39172;45.550;12.072;2023-11-18T03:57:23;12.07;;;10.07;;
53287;SDS011;39172;45.550;12.072;2023-11-18T04:03:25;12.32;;;10.35;;
53287;SDS011;39172;45.550;12.072;2023-11-18T04:09:27;10.40;;;9.23;;
53287;SDS011;39172;45.550;12.072;2023-11-18T04:15:28;9.38;;;8.38;;
53287;SDS011;39172;45.550;12.072;2023-11-18T04:21:29;8.60;;;7.70;;
53287;SDS011;39172;45.550;12.072;2023-11-18T04:27:30;9.05;;;7.70;;
53287;SDS011;39172;45.550;12.072;2023-11-18T04:33:31;10.10;;;8.75;;
53287;SDS011;39172;45.550;12.072;2023-11-18T04:39:33;9.07;;;8.15;;
53287;SDS011;39172;45.550;12.072;2023-11-18T04:45:34;8.18;;;7.05;;
53287;SDS011;39172;45.550;12.072;2023-11-18T04:51:36;8.55;;;7.07;;
53287;SDS011;39172;45.550;12.072;2023-11-18T04:57:39;9.38;;;7.80;;
53287;SDS011;39172;45.550;12.072;2023-11-18T05:03:40;9.23;;;8.23;;
53287;SDS011;39172;45.550;12.072;2023-11-18T05:09:41;8.38;;;7.43;;
53287;SDS011;39172;45.550;12.072;2023-11-18T05:15:43;10.18;;;8.75;;
53287;SDS011;39172;45.550;12.072;2023-11-18T05:21:47;10.30;;;8.85;;
53287;SDS011;39172;45.550;12.072;2023-11-18T05:27:50;9.25;;;7.65;;
53287;SDS011;39172;45.550;12.072;2023-11-18T05:33:51;9.32;;;7.72;;
53287;SDS011;39172;45.550;12.072;2023-11-18T05:39:56;7.80;;;7.00;;
53287;SDS011;39172;45.550;12.072;2023-11-18T05:46:08;7.45;;;6.45;;
53287;SDS011;39172;45.550;12.072;2023-11-18T05:52:22;5.75;;;5.15;;
53287;SDS011;39172;45.550;12.072;2023-11-18T05:58:23;8.10;;;6.80;;
53287;SDS011;39172;45.550;12.072;2023-11-18T06:04:24;9.20;;;8.20;;
53287;SDS011;39172;45.550;12.072;2023-11-18T06:10:26;10.75;;;8.57;;
53287;SDS011;39172;45.550;12.072;2023-11-18T06:16:27;10.32;;;7.53;;
53287;SDS011;39172;45.550;12.072;2023-11-18T06:22:28;8.35;;;7.22;;
53287;SDS011;39172;45.550;12.072;2023-11-18T06:28:30;8.30;;;7.40;;
53287;SDS011;39172;45.550;12.072;2023-11-18T06:34:32;9.35;;;7.70;;
53287;SDS011;39172;45.550;12.072;2023-11-18T06:40:33;8.00;;;6.97;;
53287;SDS011;39172;45.550;12.072;2023-11-18T06:46:36;7.28;;;6.22;;
53287;SDS011;39172;45.550;12.072;2023-11-18T06:52:40;6.20;;;5.57;;
53287;SDS011;39172;45.550;12.072;2023-11-18T06:58:45;5.28;;;4.75;;
53287;SDS011;39172;45.550;12.072;2023-11-18T07:04:48;5.50;;;4.93;;
53287;SDS011;39172;45.550;12.072;2023-11-18T07:10:49;6.40;;;5.70;;
53287;SDS011;39172;45.550;12.072;2023-11-18T07:16:51;6.55;;;5.68;;
53287;SDS011;39172;45.550;12.072;2023-11-18T07:22:52;7.22;;;6.53;;
53287;SDS011;39172;45.550;12.072;2023-11-18T07:28:53;8.10;;;6.90;;
53287;SDS011;39172;45.550;12.072;2023-11-18T07:34:55;8.25;;;7.03;;
53287;SDS011;39172;45.550;12.072;2023-11-18T07:40:56;6.28;;;5.63;;
53287;SDS011;39172;45.550;12.072;2023-11-18T07:46:57;6.47;;;5.63;;
53287;SDS011;39172;45.550;12.072;2023-11-18T07:52:58;6.30;;;5.68;;
53287;SDS011;39172;45.550;12.072;2023-11-18T07:59:00;6.78;;;6.07;;
53287;SDS011;39172;45.550;12.072;2023-11-18T08:05:03;6.90;;;5.80;;
53287;SDS011;39172;45.550;12.072;2023-11-18T08:11:04;7.63;;;6.50;;
53287;SDS011;39172;45.550;12.072;2023-11-18T08:17:05;7.60;;;5.95;;
53287;SDS011;39172;45.550;12.072;2023-11-18T08:23:06;8.43;;;6.40;;
53287;SDS011;39172;45.550;12.072;2023-11-18T08:29:07;6.93;;;5.43;;
53287;SDS011;39172;45.550;12.072;2023-11-18T08:35:08;5.80;;;5.20;;
53287;SDS011;39172;45.550;12.072;2023-11-18T08:41:10;6.10;;;5.18;;
53287;SDS011;39172;45.550;12.072;2023-11-18T08:47:13;6.22;;;4.70;;
53287;SDS011;39172;45.550;12.072;2023-11-18T08:53:14;4.85;;;4.20;;
53287;SDS011;39172;45.550;12.072;2023-11-18T08:59:18;4.97;;;4.00;;
53287;SDS011;39172;45.550;12.072;2023-11-18T09:05:25;5.30;;;4.40;;
53287;SDS011;39172;45.550;12.072;2023-11-18T09:11:26;5.00;;;4.07;;
53287;SDS011;39172;45.550;12.072;2023-11-18T09:17:29;4.57;;;3.38;;
53287;SDS011;39172;45.550;12.072;2023-11-18T09:23:31;4.60;;;3.78;;
53287;SDS011;39172;45.550;12.072;2023-11-18T09:29:40;3.97;;;3.27;;
53287;SDS011;39172;45.550;12.072;2023-11-18T09:35:42;3.72;;;3.00;;
53287;SDS011;39172;45.550;12.072;2023-11-18T09:41:42;3.30;;;3.00;;
53287;SDS011;39172;45.550;12.072;2023-11-18T09:47:44;2.90;;;2.15;;
53287;SDS011;39172;45.550;12.072;2023-11-18T09:53:50;3.78;;;2.53;;
53287;SDS011;39172;45.550;12.072;2023-11-18T10:06:12;3.20;;;2.13;;
53287;SDS011;39172;45.550;12.072;2023-11-18T10:12:15;2.03;;;1.67;;
53287;SDS011;39172;45.550;12.072;2023-11-18T10:18:24;2.28;;;1.80;;
53287;SDS011;39172;45.550;12.072;2023-11-18T10:24:26;1.48;;;1.30;;
53287;SDS011;39172;45.550;12.072;2023-11-18T10:30:27;2.15;;;1.60;;
53287;SDS011;39172;45.550;12.072;2023-11-18T10:36:28;2.63;;;2.33;;
53287;SDS011;39172;45.550;12.072;2023-11-18T10:42:30;2.70;;;2.30;;
53287;SDS011;39172;45.550;12.072;2023-11-18T10:48:31;3.58;;;2.40;;
53287;SDS011;39172;45.550;12.072;2023-11-18T10:54:32;2.72;;;2.40;;
53287;SDS011;39172;45.550;12.072;2023-11-18T11:00:47;2.15;;;1.90;;
53287;SDS011;39172;45.550;12.072;2023-11-18T11:06:49;2.05;;;1.75;;
53287;SDS011;39172;45.550;12.072;2023-11-18T11:12:54;3.67;;;2.80;;
53287;SDS011;39172;45.550;12.072;2023-11-18T11:18:56;2.30;;;2.03;;
53287;SDS011;39172;45.550;12.072;2023-11-18T11:25:10;3.38;;;2.53;;
53287;SDS011;39172;45.550;12.072;2023-11-18T11:31:32;2.72;;;2.22;;
53287;SDS011;39172;45.550;12.072;2023-11-18T11:37:38;3.55;;;2.50;;
53287;SDS011;39172;45.550;12.072;2023-11-18T11:43:45;2.38;;;1.80;;
53287;SDS011;39172;45.550;12.072;2023-11-18T11:49:59;3.10;;;2.50;;
53287;SDS011;39172;45.550;12.072;2023-11-18T11:56:11;3.05;;;2.50;;
53287;SDS011;39172;45.550;12.072;2023-11-18T12:02:15;3.17;;;2.42;;
53287;SDS011;39172;45.550;12.072;2023-11-18T12:08:17;2.67;;;2.40;;
53287;SDS011;39172;45.550;12.072;2023-11-18T12:14:19;2.83;;;2.20;;
53287;SDS011;39172;45.550;12.072;2023-11-18T12:26:45;3.47;;;2.85;;
53287;SDS011;39172;45.550;12.072;2023-11-18T12:32:58;3.60;;;3.00;;
53287;SDS011;39172;45.550;12.072;2023-11-18T12:51:42;3.85;;;2.95;;
53287;SDS011;39172;45.550;12.072;2023-11-18T12:57:47;5.00;;;3.25;;
53287;SDS011;39172;45.550;12.072;2023-11-18T13:03:48;5.63;;;3.60;;
53287;SDS011;39172;45.550;12.072;2023-11-18T13:09:50;4.65;;;3.50;;
53287;SDS011;39172;45.550;12.072;2023-11-18T13:15:51;3.90;;;3.10;;
53287;SDS011;39172;45.550;12.072;2023-11-18T13:21:55;4.75;;;3.20;;
53287;SDS011;39172;45.550;12.072;2023-11-18T13:27:58;3.35;;;2.58;;
53287;SDS011;39172;45.550;12.072;2023-11-18T13:33:59;4.13;;;3.00;;
53287;SDS011;39172;45.550;12.072;2023-11-18T13:40:01;3.55;;;2.80;;
53287;SDS011;39172;45.550;12.072;2023-11-18T13:46:09;3.78;;;2.88;;
53287;SDS011;39172;45.550;12.072;2023-11-18T13:52:12;3.00;;;2.60;;
53287;SDS011;39172;45.550;12.072;2023-11-18T13:58:16;3.13;;;2.60;;
53287;SDS011;39172;45.550;12.072;2023-11-18T14:04:23;2.88;;;2.30;;
53287;SDS011;39172;45.550;12.072;2023-11-18T14:10:25;3.53;;;2.60;;
53287;SDS011;39172;45.550;12.072;2023-11-18T14:16:27;3.00;;;2.55;;
53287;SDS011;39172;45.550;12.072;2023-11-18T14:22:29;2.67;;;2.22;;
53287;SDS011;39172;45.550;12.072;2023-11-18T14:28:30;3.53;;;2.60;;
53287;SDS011;39172;45.550;12.072;2023-11-18T14:34:32;3.58;;;2.83;;
53287;SDS011;39172;45.550;12.072;2023-11-18T14:40:35;2.60;;;2.30;;
53287;SDS011;39172;45.550;12.072;2023-11-18T14:46:37;3.42;;;2.70;;
53287;SDS011;39172;45.550;12.072;2023-11-18T14:52:58;3.33;;;2.78;;
53287;SDS011;39172;45.550;12.072;2023-11-18T14:59:00;3.70;;;3.10;;
53287;SDS011;39172;45.550;12.072;2023-11-18T15:05:01;4.22;;;3.33;;
53287;SDS011;39172;45.550;12.072;2023-11-18T15:11:07;5.10;;;3.60;;
53287;SDS011;39172;45.550;12.072;2023-11-18T15:17:08;10.35;;;6.93;;
53287;SDS011;39172;45.550;12.072;2023-11-18T15:23:10;12.10;;;8.15;;
53287;SDS011;39172;45.550;12.072;2023-11-18T15:29:12;11.98;;;8.90;;
53287;SDS011;39172;45.550;12.072;2023-11-18T15:35:15;12.73;;;10.38;;
53287;SDS011;39172;45.550;12.072;2023-11-18T15:41:17;13.30;;;10.23;;
53287;SDS011;39172;45.550;12.072;2023-11-18T15:47:18;18.05;;;8.23;;
53287;SDS011;39172;45.550;12.072;2023-11-18T15:53:19;19.35;;;12.00;;
53287;SDS011;39172;45.550;12.072;2023-11-18T15:59:20;19.50;;;10.30;;
53287;SDS011;39172;45.550;12.072;2023-11-18T16:05:21;24.10;;;12.73;;
53287;SDS011;39172;45.550;12.072;2023-11-18T16:11:23;24.02;;;12.43;;
53287;SDS011;39172;45.550;12.072;2023-11-18T16:17:25;26.92;;;14.27;;
53287;SDS011;39172;45.550;12.072;2023-11-18T16:23:28;31.33;;;13.25;;
53287;SDS011;39172;45.550;12.072;2023-11-18T16:29:30;30.23;;;15.38;;
53287;SDS011;39172;45.550;12.072;2023-11-18T16:35:33;32.05;;;15.30;;
53287;SDS011;39172;45.550;12.072;2023-11-18T16:41:34;29.30;;;13.43;;
53287;SDS011;39172;45.550;12.072;2023-11-18T16:47:35;29.67;;;13.75;;
53287;SDS011;39172;45.550;12.072;2023-11-18T16:53:37;35.25;;;17.08;;
53287;SDS011;39172;45.550;12.072;2023-11-18T16:59:37;35.75;;;15.68;;
53287;SDS011;39172;45.550;12.072;2023-11-18T17:05:39;32.75;;;15.30;;
53287;SDS011;39172;45.550;12.072;2023-11-18T17:11:40;33.58;;;16.10;;
53287;SDS011;39172;45.550;12.072;2023-11-18T17:17:45;27.92;;;14.90;;
53287;SDS011;39172;45.550;12.072;2023-11-18T17:23:48;33.90;;;16.58;;
53287;SDS011;39172;45.550;12.072;2023-11-18T17:29:51;35.40;;;18.45;;
53287;SDS011;39172;45.550;12.072;2023-11-18T17:35:52;51.10;;;27.65;;
53287;SDS011;39172;45.550;12.072;2023-11-18T17:41:53;40.25;;;21.73;;
53287;SDS011;39172;45.550;12.072;2023-11-18T17:47:54;37.92;;;21.45;;
53287;SDS011;39172;45.550;12.072;2023-11-18T17:53:55;36.85;;;20.02;;
53287;SDS011;39172;45.550;12.072;2023-11-18T17:59:56;33.72;;;19.75;;
53287;SDS011;39172;45.550;12.072;2023-11-18T18:05:59;46.92;;;24.95;;
53287;SDS011;39172;45.550;12.072;2023-11-18T18:12:00;50.55;;;29.65;;
53287;SDS011;39172;45.550;12.072;2023-11-18T18:18:01;47.42;;;27.15;;
53287;SDS011;39172;45.550;12.072;2023-11-18T18:24:03;53.13;;;29.90;;
53287;SDS011;39172;45.550;12.072;2023-11-18T18:30:04;37.67;;;20.55;;
53287;SDS011;39172;45.550;12.072;2023-11-18T18:36:08;42.10;;;24.00;;
53287;SDS011;39172;45.550;12.072;2023-11-18T18:42:09;47.53;;;26.27;;
53287;SDS011;39172;45.550;12.072;2023-11-18T18:48:10;39.97;;;22.48;;
53287;SDS011;39172;45.550;12.072;2023-11-18T18:54:11;28.20;;;16.75;;
53287;SDS011;39172;45.550;12.072;2023-11-18T19:00:13;23.58;;;13.98;;
53287;SDS011;39172;45.550;12.072;2023-11-18T19:06:17;21.60;;;12.65;;
53287;SDS011;39172;45.550;12.072;2023-11-18T19:12:18;18.55;;;15.63;;
53287;SDS011;39172;45.550;12.072;2023-11-18T19:18:20;17.42;;;14.43;;
53287;SDS011;39172;45.550;12.072;2023-11-18T19:24:22;18.33;;;11.15;;
53287;SDS011;39172;45.550;12.072;2023-11-18T19:30:23;14.23;;;11.93;;
53287;SDS011;39172;45.550;12.072;2023-11-18T19:36:24;14.65;;;11.32;;
53287;SDS011;39172;45.550;12.072;2023-11-18T19:42:26;12.05;;;10.18;;
53287;SDS011;39172;45.550;12.072;2023-11-18T19:48:29;13.10;;;11.52;;
53287;SDS011;39172;45.550;12.072;2023-11-18T19:54:35;14.68;;;12.68;;
53287;SDS011;39172;45.550;12.072;2023-11-18T20:00:36;18.20;;;14.85;;
53287;SDS011;39172;45.550;12.072;2023-11-18T20:06:37;17.35;;;14.32;;
53287;SDS011;39172;45.550;12.072;2023-11-18T20:12:38;15.95;;;13.20;;
53287;SDS011;39172;45.550;12.072;2023-11-18T20:18:39;20.92;;;16.73;;
53287;SDS011;39172;45.550;12.072;2023-11-18T20:24:40;21.55;;;17.90;;
53287;SDS011;39172;45.550;12.072;2023-11-18T20:30:42;23.55;;;19.63;;
53287;SDS011;39172;45.550;12.072;2023-11-18T20:36:43;24.15;;;19.40;;
53287;SDS011;39172;45.550;12.072;2023-11-18T20:42:44;23.48;;;19.95;;
53287;SDS011;39172;45.550;12.072;2023-11-18T20:48:45;25.08;;;20.92;;
53287;SDS011;39172;45.550;12.072;2023-11-18T20:54:46;23.95;;;20.50;;
53287;SDS011;39172;45.550;12.072;2023-11-18T21:00:47;24.42;;;20.02;;
53287;SDS011;39172;45.550;12.072;2023-11-18T21:06:49;20.42;;;17.42;;
53287;SDS011;39172;45.550;12.072;2023-11-18T21:12:50;29.05;;;22.33;;
53287;SDS011;39172;45.550;12.072;2023-11-18T21:18:51;27.42;;;21.75;;
53287;SDS011;39172;45.550;12.072;2023-11-18T21:24:52;23.73;;;18.40;;
53287;SDS011;39172;45.550;12.072;2023-11-18T21:30:54;25.50;;;20.40;;
53287;SDS011;39172;45.550;12.072;2023-11-18T21:36:55;22.08;;;18.77;;
53287;SDS011;39172;45.550;12.072;2023-11-18T21:42:56;25.88;;;20.92;;
53287;SDS011;39172;45.550;12.072;2023-11-18T21:48:58;25.17;;;20.25;;
53287;SDS011;39172;45.550;12.072;2023-11-18T21:54:59;24.40;;;20.65;;
53287;SDS011;39172;45.550;12.072;2023-11-18T22:01:00;24.38;;;20.30;;
53287;SDS011;39172;45.550;12.072;2023-11-18T22:07:01;25.27;;;20.83;;
53287;SDS011;39172;45.550;12.072;2023-11-18T22:13:02;23.90;;;20.38;;
53287;SDS011;39172;45.550;12.072;2023-11-18T22:19:03;25.15;;;20.30;;
53287;SDS011;39172;45.550;12.072;2023-11-18T22:25:05;23.65;;;19.48;;
53287;SDS011;39172;45.550;12.072;2023-11-18T22:31:07;21.30;;;17.85;;
53287;SDS011;39172;45.550;12.072;2023-11-18T22:37:08;23.70;;;19.63;;
53287;SDS011;39172;45.550;12.072;2023-11-18T22:43:09;20.08;;;17.52;;
53287;SDS011;39172;45.550;12.072;2023-11-18T22:49:10;19.60;;;16.63;;
53287;SDS011;39172;45.550;12.072;2023-11-18T22:55:11;17.70;;;14.80;;
53287;SDS011;39172;45.550;12.072;2023-11-18T23:01:12;16.52;;;14.13;;
53287;SDS011;39172;45.550;12.072;2023-11-18T23:07:16;15.05;;;12.95;;
53287;SDS011;39172;45.550;12.072;2023-11-18T23:13:17;15.43;;;12.98;;
53287;SDS011;39172;45.550;12.072;2023-11-18T23:19:18;15.75;;;13.07;;
53287;SDS011;39172;45.550;12.072;2023-11-18T23:25:20;16.65;;;13.68;;
53287;SDS011;39172;45.550;12.072;2023-11-18T23:31:23;20.10;;;16.90;;
53287;SDS011;39172;45.550;12.072;2023-11-18T23:37:29;24.15;;;18.77;;
53287;SDS011;39172;45.550;12.072;2023-11-18T23:43:30;20.50;;;17.05;;
53287;SDS011;39172;45.550;12.072;2023-11-18T23:49:32;17.15;;;14.52;;
53287;SDS011;39172;45.550;12.072;2023-11-18T23:55:34;20.13;;;16.45;;
